createdAt,value
2023-03-08T00:00:12.416Z,72.70
2023-03-08T00:02:40.107Z,72.05
2023-03-08T00:05:08.597Z,72.05
2023-03-08T00:07:36.032Z,73.53
2023-03-08T00:10:04.502Z,72.70
2023-03-08T00:12:32.081Z,72.84
2023-03-08T00:14:59.418Z,73.65
2023-03-08T00:17:26.716Z,73.02
2023-03-08T00:19:54.047Z,73.04
2023-03-08T00:22:21.492Z,71.16
2023-03-08T00:24:48.818Z,70.66
2023-03-08T00:27:16.141Z,71.07
2023-03-08T00:29:43.505Z,70.30
2023-03-08T00:32:10.840Z,71.22
2023-03-08T00:34:38.258Z,72.71
2023-03-08T00:37:05.618Z,73.58
2023-03-08T00:39:33.041Z,73.96
2023-03-08T00:42:00.748Z,72.09
2023-03-08T00:44:28.468Z,71.87
2023-03-08T00:46:55.991Z,73.36
2023-03-08T00:49:23.394Z,74.30
2023-03-08T00:51:51.635Z,75.13
2023-03-08T00:54:18.939Z,74.33
2023-03-08T00:56:46.350Z,73.85
2023-03-08T00:59:13.991Z,72.09
2023-03-08T01:01:41.392Z,74.07
2023-03-08T01:04:08.733Z,76.88
2023-03-08T01:06:36.184Z,77.49
2023-03-08T01:09:03.606Z,79.28
2023-03-08T01:11:33.205Z,78.35
2023-03-08T01:14:00.534Z,76.59
2023-03-08T01:16:31.058Z,75.57
2023-03-08T01:19:01.247Z,75.65
2023-03-08T01:21:30.297Z,78.04
2023-03-08T01:23:58.656Z,76.45
2023-03-08T01:26:28.864Z,76.13
2023-03-08T01:28:56.885Z,77.37
2023-03-08T01:31:33.836Z,77.96
2023-03-08T01:34:01.176Z,78.34
2023-03-08T01:36:28.983Z,76.30
2023-03-08T01:38:56.678Z,75.86
2023-03-08T01:41:29.493Z,78.11
2023-03-08T01:43:57.106Z,76.82
2023-03-08T01:46:35.743Z,78.39
2023-03-08T01:49:14.190Z,77.27
2023-03-08T01:52:00.321Z,75.98
2023-03-08T01:54:30.972Z,78.45
2023-03-08T01:57:02.153Z,76.69
2023-03-08T01:59:31.042Z,75.06
2023-03-08T02:01:59.157Z,74.77
2023-03-08T02:04:26.902Z,76.70
2023-03-08T02:06:55.364Z,75.40
2023-03-08T02:09:24.961Z,77.62
2023-03-08T02:11:55.109Z,78.23
2023-03-08T02:14:22.610Z,76.54
2023-03-08T02:16:51.965Z,75.86
2023-03-08T02:19:47.252Z,75.57
2023-03-08T02:22:16.123Z,74.31
2023-03-08T02:24:43.484Z,75.40
2023-03-08T02:27:20.529Z,76.45
2023-03-08T02:29:49.304Z,77.04
2023-03-08T02:32:16.742Z,74.68
2023-03-08T02:34:44.223Z,78.24
2023-03-08T02:37:12.999Z,76.25
2023-03-08T02:39:40.302Z,78.78
2023-03-08T02:42:07.814Z,77.52
2023-03-08T02:44:35.958Z,79.38
2023-03-08T02:47:03.340Z,78.26
2023-03-08T02:49:30.612Z,79.78
2023-03-08T02:51:59.380Z,79.78
2023-03-08T02:54:26.819Z,81.65
2023-03-08T02:56:54.169Z,80.57
2023-03-08T02:59:23.832Z,80.69
2023-03-08T03:01:52.572Z,80.62
2023-03-08T03:04:21.006Z,80.23
2023-03-08T03:06:48.337Z,79.51
2023-03-08T03:09:16.300Z,79.30
2023-03-08T03:11:43.773Z,81.42
2023-03-08T03:14:11.273Z,82.83
2023-03-08T03:16:42.509Z,82.61
2023-03-08T03:19:11.776Z,82.16
2023-03-08T03:21:39.964Z,79.76
2023-03-08T03:24:07.811Z,81.79
2023-03-08T03:26:43.836Z,83.65
2023-03-08T03:29:11.486Z,83.76
2023-03-08T03:31:41.446Z,81.89
2023-03-08T03:34:09.592Z,82.57
2023-03-08T03:36:37.641Z,81.16
2023-03-08T03:39:05.226Z,79.69
2023-03-08T03:41:34.792Z,80.81
2023-03-08T03:44:07.157Z,84.15
2023-03-08T03:46:35.493Z,83.37
2023-03-08T03:49:05.361Z,80.74
2023-03-08T03:51:37.493Z,82.77
2023-03-08T03:54:14.459Z,81.93
2023-03-08T03:56:44.220Z,80.59
2023-03-08T03:59:11.559Z,80.22
2023-03-08T04:01:39.151Z,82.84
2023-03-08T04:04:15.517Z,80.58
2023-03-08T04:06:45.045Z,83.40
2023-03-08T04:09:20.344Z,84.32
2023-03-08T04:11:56.813Z,84.06
2023-03-08T04:14:24.767Z,83.48
2023-03-08T04:16:53.848Z,82.47
2023-03-08T04:19:30.475Z,80.26
2023-03-08T04:21:59.083Z,79.79
2023-03-08T04:24:32.731Z,80.15
2023-03-08T04:27:04.295Z,82.70
2023-03-08T04:29:32.666Z,81.66
2023-03-08T04:32:00.549Z,81.18
2023-03-08T04:34:38.262Z,79.03
2023-03-08T04:37:06.580Z,80.04
2023-03-08T04:39:34.070Z,79.83
2023-03-08T04:42:01.482Z,80.80
2023-03-08T04:44:31.668Z,81.04
2023-03-08T04:47:00.030Z,82.34
2023-03-08T04:49:35.090Z,82.15
2023-03-08T04:52:04.048Z,83.22
2023-03-08T04:54:33.977Z,81.92
2023-03-08T04:57:10.094Z,84.13
2023-03-08T04:59:38.683Z,83.71
2023-03-08T05:02:07.260Z,81.39
2023-03-08T05:04:36.504Z,81.12
2023-03-08T05:07:04.702Z,83.18
2023-03-08T05:09:35.297Z,82.68
2023-03-08T05:12:02.951Z,81.04
2023-03-08T05:14:44.036Z,82.17
2023-03-08T05:17:11.369Z,82.67
2023-03-08T05:19:39.296Z,80.76
2023-03-08T05:22:07.886Z,80.08
2023-03-08T05:24:41.394Z,79.39
2023-03-08T05:27:11.514Z,79.00
2023-03-08T05:29:39.131Z,80.07
2023-03-08T05:32:10.500Z,81.45
2023-03-08T05:34:38.035Z,81.08
2023-03-08T05:37:08.302Z,80.77
2023-03-08T05:39:38.055Z,82.13
2023-03-08T05:42:13.814Z,80.78
2023-03-08T05:44:44.122Z,81.62
2023-03-08T05:47:13.525Z,79.85
2023-03-08T05:49:41.460Z,77.65
2023-03-08T05:52:09.494Z,78.71
2023-03-08T05:54:37.009Z,77.41
2023-03-08T05:57:09.639Z,77.19
2023-03-08T05:59:38.211Z,77.49
2023-03-08T06:02:07.454Z,76.92
2023-03-08T06:04:39.622Z,79.28
2023-03-08T06:07:07.161Z,77.74
2023-03-08T06:09:39.335Z,78.02
2023-03-08T06:12:09.374Z,77.67
2023-03-08T06:14:37.198Z,77.92
2023-03-08T06:17:05.083Z,76.25
2023-03-08T06:19:35.268Z,77.03
2023-03-08T06:22:02.578Z,77.33
2023-03-08T06:24:30.626Z,76.80
2023-03-08T06:27:00.489Z,77.91
2023-03-08T06:29:27.721Z,79.70
2023-03-08T06:31:55.478Z,83.20
2023-03-08T06:34:23.377Z,85.82
2023-03-08T06:36:53.327Z,86.51
2023-03-08T06:39:21.788Z,85.60
2023-03-08T06:41:49.134Z,84.31
2023-03-08T06:44:16.624Z,88.46
2023-03-08T06:46:44.030Z,90.66
2023-03-08T06:49:11.427Z,84.30
2023-03-08T06:51:39.293Z,88.91
2023-03-08T06:54:06.890Z,91.37
2023-03-08T06:56:34.798Z,87.22
2023-03-08T06:59:02.266Z,90.42
2023-03-08T07:01:29.668Z,87.42
2023-03-08T07:03:57.118Z,86.51
2023-03-08T07:06:24.614Z,85.50
2023-03-08T07:08:52.124Z,85.12
2023-03-08T07:11:19.528Z,85.27
2023-03-08T07:13:46.751Z,85.65
2023-03-08T07:16:14.357Z,83.69
2023-03-08T07:18:41.991Z,82.64
2023-03-08T07:21:10.409Z,82.31
2023-03-08T07:23:37.613Z,82.23
2023-03-08T07:26:06.579Z,81.38
2023-03-08T07:28:34.392Z,83.06
2023-03-08T07:31:01.797Z,81.07
2023-03-08T07:33:29.623Z,82.08
2023-03-08T07:36:01.590Z,82.12
2023-03-08T07:38:29.636Z,81.18
2023-03-08T07:40:57.446Z,82.79
2023-03-08T07:43:24.965Z,81.77
2023-03-08T07:46:01.725Z,82.54
2023-03-08T07:48:30.037Z,81.54
2023-03-08T07:51:06.588Z,81.22
2023-03-08T07:53:34.306Z,83.32
2023-03-08T07:56:01.690Z,82.74
2023-03-08T07:58:29.658Z,81.37
2023-03-08T08:00:56.970Z,81.62
2023-03-08T08:03:24.671Z,83.44
2023-03-08T08:05:52.171Z,80.61
2023-03-08T08:08:19.908Z,78.93
2023-03-08T08:10:47.228Z,77.14
2023-03-08T08:13:14.771Z,77.84
2023-03-08T08:15:42.313Z,79.17
2023-03-08T08:18:09.742Z,77.48
2023-03-08T08:20:37.201Z,77.65
2023-03-08T08:23:07.924Z,78.68
2023-03-08T08:25:35.514Z,79.43
2023-03-08T08:28:03.069Z,80.12
2023-03-08T08:30:30.350Z,80.91
2023-03-08T08:32:57.595Z,79.33
2023-03-08T08:35:37.206Z,78.18
2023-03-08T08:38:09.653Z,77.79
2023-03-08T08:40:37.220Z,76.73
2023-03-08T08:43:04.480Z,76.63
2023-03-08T08:45:31.964Z,75.95
2023-03-08T08:47:59.481Z,77.43
2023-03-08T08:50:27.134Z,79.26
2023-03-08T08:52:54.476Z,77.22
2023-03-08T08:55:21.948Z,78.30
2023-03-08T08:57:51.894Z,79.48
2023-03-08T09:00:19.950Z,79.46
2023-03-08T09:02:47.377Z,80.64
2023-03-08T09:05:14.824Z,80.06
2023-03-08T09:07:42.635Z,77.82
2023-03-08T09:10:10.876Z,78.12
2023-03-08T09:12:38.516Z,77.00
2023-03-08T09:15:06.859Z,76.34
2023-03-08T09:17:34.517Z,76.65
2023-03-08T09:20:01.915Z,77.24
2023-03-08T09:22:29.278Z,76.29
2023-03-08T09:24:57.573Z,76.30
2023-03-08T09:27:25.181Z,74.91
2023-03-08T09:29:52.713Z,74.81
2023-03-08T09:32:21.179Z,75.67
2023-03-08T09:34:48.527Z,75.92
2023-03-08T09:37:16.077Z,74.31
2023-03-08T09:39:46.546Z,73.23
2023-03-08T09:42:22.539Z,71.95
2023-03-08T09:45:15.391Z,75.05
2023-03-08T09:48:07.793Z,74.90
2023-03-08T09:50:45.692Z,75.71
2023-03-08T09:53:37.913Z,75.46
2023-03-08T09:56:17.200Z,74.92
2023-03-08T09:58:49.071Z,75.36
2023-03-08T10:01:39.343Z,78.65
2023-03-08T10:04:25.248Z,78.23
2023-03-08T10:07:10.757Z,78.18
2023-03-08T10:09:48.923Z,76.70
2023-03-08T10:12:44.404Z,76.02
2023-03-08T10:15:15.959Z,75.22
2023-03-08T10:18:15.818Z,74.47
2023-03-08T10:20:43.554Z,71.72
2023-03-08T10:23:17.162Z,72.39
2023-03-08T10:25:45.652Z,72.53
2023-03-08T10:28:17.431Z,71.75
2023-03-08T10:30:47.637Z,72.18
2023-03-08T10:33:17.725Z,72.52
2023-03-08T10:35:57.406Z,72.06
2023-03-08T10:38:28.094Z,72.52
2023-03-08T10:41:04.332Z,73.89
2023-03-08T10:43:40.493Z,73.06
2023-03-08T10:46:14.909Z,73.67
2023-03-08T10:48:42.781Z,73.67
2023-03-08T10:51:18.122Z,72.73
2023-03-08T10:54:03.058Z,73.27
2023-03-08T10:56:53.772Z,73.76
2023-03-08T10:59:28.154Z,74.30
2023-03-08T11:01:59.108Z,75.08
2023-03-08T11:04:29.141Z,76.29
2023-03-08T11:06:56.744Z,76.21
2023-03-08T11:09:27.769Z,76.14
2023-03-08T11:11:56.777Z,77.30
2023-03-08T11:14:25.540Z,75.94
2023-03-08T11:17:11.190Z,75.26
2023-03-08T11:20:11.447Z,75.15
2023-03-08T11:22:45.321Z,74.87
2023-03-08T11:25:19.253Z,75.34
2023-03-08T11:27:58.582Z,75.80
2023-03-08T11:30:36.592Z,76.12
2023-03-08T11:33:19.595Z,75.93
2023-03-08T11:36:06.286Z,75.90
2023-03-08T11:38:35.415Z,75.88
2023-03-08T11:41:11.357Z,74.68
2023-03-08T11:43:51.439Z,75.36
2023-03-08T11:46:23.026Z,75.60
2023-03-08T11:49:02.470Z,75.50
2023-03-08T11:51:35.451Z,75.10
2023-03-08T11:54:27.500Z,74.40
2023-03-08T11:56:55.634Z,73.49
2023-03-08T11:59:35.786Z,76.67
2023-03-08T12:02:14.021Z,80.77
2023-03-08T12:05:03.311Z,81.99
2023-03-08T12:07:44.999Z,82.95
2023-03-08T12:10:30.114Z,82.91
2023-03-08T12:13:21.986Z,82.44
2023-03-08T12:15:59.084Z,82.53
2023-03-08T12:18:40.828Z,83.21
2023-03-08T12:21:13.948Z,83.24
2023-03-08T12:23:46.924Z,83.24
2023-03-08T12:26:27.862Z,81.31
2023-03-08T12:29:02.568Z,80.34
2023-03-08T12:31:34.186Z,79.29
2023-03-08T12:34:13.036Z,78.34
2023-03-08T12:36:43.417Z,76.56
2023-03-08T12:39:27.998Z,74.96
2023-03-08T12:42:01.349Z,75.51
2023-03-08T12:44:30.909Z,74.54
2023-03-08T12:47:19.647Z,74.70
2023-03-08T12:49:50.936Z,76.00
2023-03-08T12:52:18.444Z,75.01
2023-03-08T12:54:59.891Z,74.21
2023-03-08T12:57:38.163Z,73.20
2023-03-08T13:00:23.737Z,73.39
2023-03-08T13:03:12.746Z,72.87
2023-03-08T13:05:45.222Z,73.46
2023-03-08T13:08:15.746Z,73.15
2023-03-08T13:11:03.235Z,73.56
2023-03-08T13:13:45.994Z,73.74
2023-03-08T13:16:31.962Z,73.78
2023-03-08T13:19:18.457Z,74.33
2023-03-08T13:22:04.568Z,75.43
2023-03-08T13:24:50.274Z,76.16
2023-03-08T13:27:26.671Z,78.77
2023-03-08T13:29:55.477Z,80.55
2023-03-08T13:32:24.661Z,80.78
2023-03-08T13:35:02.962Z,80.70
2023-03-08T13:37:30.620Z,79.85
2023-03-08T13:40:00.166Z,78.46
2023-03-08T13:42:28.931Z,79.42
2023-03-08T13:45:31.784Z,78.98
2023-03-08T13:48:01.142Z,80.58
2023-03-08T13:50:34.590Z,80.48
2023-03-08T13:53:03.550Z,78.65
2023-03-08T13:55:38.768Z,80.12
2023-03-08T13:58:06.423Z,82.36
2023-03-08T14:00:35.626Z,82.14
2023-03-08T14:03:07.556Z,83.48
2023-03-08T14:05:42.719Z,83.96
2023-03-08T14:08:23.255Z,84.81
2023-03-08T14:11:03.219Z,84.43
2023-03-08T14:13:35.326Z,85.59
2023-03-08T14:16:05.420Z,86.68
2023-03-08T14:18:43.782Z,85.45
2023-03-08T14:21:22.907Z,86.88
2023-03-08T14:23:52.886Z,87.95
2023-03-08T14:26:23.471Z,88.81
2023-03-08T14:29:10.136Z,89.56
2023-03-08T14:31:40.882Z,89.01
2023-03-08T14:34:26.551Z,90.55
2023-03-08T14:36:59.343Z,91.33
2023-03-08T14:39:29.182Z,91.83
2023-03-08T14:41:57.075Z,92.52
2023-03-08T14:44:27.757Z,93.17
2023-03-08T14:46:58.879Z,95.13
2023-03-08T14:49:29.161Z,95.74
2023-03-08T14:51:56.688Z,96.84
2023-03-08T14:54:33.344Z,98.14
2023-03-08T14:57:16.249Z,96.95
2023-03-08T14:59:44.054Z,97.20
2023-03-08T15:02:13.421Z,98.48
2023-03-08T15:04:41.072Z,99.79
2023-03-08T15:07:19.113Z,99.66
2023-03-08T15:09:48.189Z,99.30
2023-03-08T15:12:15.714Z,98.93
2023-03-08T15:14:43.221Z,99.70
2023-03-08T15:17:10.563Z,99.41
2023-03-08T15:19:37.891Z,99.74
2023-03-08T15:22:06.771Z,97.79
2023-03-08T15:24:34.344Z,96.60
2023-03-08T15:27:01.748Z,96.89
2023-03-08T15:29:33.735Z,97.18
2023-03-08T15:32:01.233Z,97.87
2023-03-08T15:34:28.766Z,96.82
2023-03-08T15:36:56.296Z,96.86
2023-03-08T15:39:24.323Z,96.56
2023-03-08T15:41:52.000Z,96.76
2023-03-08T15:44:19.582Z,97.12
2023-03-08T15:46:46.915Z,96.90
2023-03-08T15:49:16.232Z,96.85
2023-03-08T15:51:44.329Z,95.10
2023-03-08T15:54:12.021Z,93.64
2023-03-08T15:56:39.362Z,93.09
2023-03-08T15:59:06.600Z,91.75
2023-03-08T16:01:34.028Z,90.61
2023-03-08T16:04:01.629Z,90.25
2023-03-08T16:06:29.079Z,90.98
2023-03-08T16:08:56.931Z,91.05
2023-03-08T16:11:24.226Z,91.46
2023-03-08T16:13:52.780Z,92.33
2023-03-08T16:16:20.644Z,90.20
2023-03-08T16:18:48.724Z,90.73
2023-03-08T16:21:16.602Z,90.97
2023-03-08T16:23:44.078Z,91.11
2023-03-08T16:26:16.962Z,90.99
2023-03-08T16:28:48.963Z,90.49
2023-03-08T16:31:16.831Z,89.83
2023-03-08T16:33:44.250Z,88.92
2023-03-08T16:36:12.267Z,89.41
2023-03-08T16:38:40.516Z,90.86
2023-03-08T16:41:15.356Z,92.02
2023-03-08T16:43:47.386Z,93.08
2023-03-08T16:46:20.974Z,95.61
2023-03-08T16:48:49.954Z,96.39
2023-03-08T16:51:19.210Z,96.87
2023-03-08T16:53:47.608Z,97.77
2023-03-08T16:56:23.891Z,99.84
2023-03-08T16:58:51.819Z,96.87
2023-03-08T17:01:19.913Z,95.30
2023-03-08T17:03:47.406Z,95.16
2023-03-08T17:06:16.639Z,96.44
2023-03-08T17:08:44.200Z,95.73
2023-03-08T17:11:20.623Z,93.83
2023-03-08T17:13:51.819Z,92.20
2023-03-08T17:16:21.049Z,94.21
2023-03-08T17:18:49.383Z,92.53
2023-03-08T17:21:17.682Z,92.91
2023-03-08T17:23:45.162Z,94.01
2023-03-08T17:26:13.794Z,92.43
2023-03-08T17:28:41.814Z,91.99
2023-03-08T17:31:11.448Z,94.91
2023-03-08T17:33:39.254Z,94.98
2023-03-08T17:36:07.804Z,95.42
2023-03-08T17:38:35.375Z,96.08
2023-03-08T17:41:14.307Z,94.06
2023-03-08T17:43:42.026Z,94.00
2023-03-08T17:46:13.781Z,93.37
2023-03-08T17:48:41.495Z,92.55
2023-03-08T17:51:11.717Z,93.46
2023-03-08T17:53:39.168Z,93.74
2023-03-08T17:56:08.053Z,92.78
2023-03-08T17:58:35.876Z,94.06
2023-03-08T18:01:08.273Z,92.96
2023-03-08T18:03:35.797Z,94.06
2023-03-08T18:06:03.658Z,93.74
2023-03-08T18:08:32.777Z,92.67
2023-03-08T18:11:00.431Z,93.59
2023-03-08T18:13:27.626Z,90.34
2023-03-08T18:15:55.283Z,87.85
2023-03-08T18:18:23.258Z,89.77
2023-03-08T18:20:50.609Z,89.22
2023-03-08T18:23:18.073Z,90.09
2023-03-08T18:25:45.251Z,90.76
2023-03-08T18:28:12.767Z,91.19
2023-03-08T18:30:40.109Z,88.84
2023-03-08T18:33:07.709Z,88.57
2023-03-08T18:35:35.056Z,90.27
2023-03-08T18:38:02.394Z,89.33
2023-03-08T18:40:29.858Z,89.09
2023-03-08T18:42:57.865Z,88.41
2023-03-08T18:45:25.112Z,89.17
2023-03-08T18:47:52.744Z,89.43
2023-03-08T18:50:20.398Z,88.26
2023-03-08T18:52:47.985Z,89.70
2023-03-08T18:55:15.699Z,90.06
2023-03-08T18:57:43.134Z,90.51
2023-03-08T19:00:12.022Z,91.14
2023-03-08T19:02:39.700Z,90.53
2023-03-08T19:05:07.500Z,88.96
2023-03-08T19:07:34.840Z,89.77
2023-03-08T19:10:03.570Z,89.93
2023-03-08T19:12:33.680Z,89.41
2023-03-08T19:15:01.045Z,91.25
2023-03-08T19:17:28.291Z,90.81
2023-03-08T19:19:55.724Z,90.11
2023-03-08T19:22:23.352Z,89.13
2023-03-08T19:24:50.936Z,88.42
2023-03-08T19:27:18.244Z,88.94
2023-03-08T19:29:45.503Z,88.37
2023-03-08T19:32:16.773Z,87.90
2023-03-08T19:34:45.892Z,87.00
2023-03-08T19:37:13.669Z,87.66
2023-03-08T19:39:42.005Z,87.95
2023-03-08T19:42:15.020Z,88.44
2023-03-08T19:44:44.377Z,87.68
2023-03-08T19:47:11.750Z,88.54
2023-03-08T19:49:40.409Z,89.62
2023-03-08T19:52:08.030Z,88.46
2023-03-08T19:54:35.586Z,89.89
2023-03-08T19:57:04.770Z,88.92
2023-03-08T19:59:32.416Z,87.71
2023-03-08T20:01:59.653Z,86.96
2023-03-08T20:04:27.121Z,87.21
2023-03-08T20:06:54.514Z,85.99
2023-03-08T20:09:22.819Z,87.32
2023-03-08T20:11:53.178Z,88.31
2023-03-08T20:14:24.614Z,86.89
2023-03-08T20:16:52.000Z,87.76
2023-03-08T20:19:19.723Z,87.54
2023-03-08T20:21:47.012Z,87.42
2023-03-08T20:24:14.549Z,86.10
2023-03-08T20:26:42.216Z,86.78
2023-03-08T20:29:09.627Z,86.48
2023-03-08T20:31:36.931Z,86.08
2023-03-08T20:34:04.476Z,86.22
2023-03-08T20:36:32.184Z,86.37
2023-03-08T20:38:59.875Z,85.73
2023-03-08T20:41:28.257Z,84.65
2023-03-08T20:43:56.381Z,85.78
2023-03-08T20:46:27.409Z,85.38
2023-03-08T20:48:54.851Z,84.62
2023-03-08T20:51:23.959Z,82.77
2023-03-08T20:53:53.271Z,81.18
2023-03-08T20:56:22.425Z,80.83
2023-03-08T20:58:49.625Z,80.96
2023-03-08T21:01:20.508Z,81.40
2023-03-08T21:03:48.819Z,81.95
2023-03-08T21:06:22.874Z,82.43
2023-03-08T21:08:51.134Z,84.43
2023-03-08T21:11:18.929Z,86.01
2023-03-08T21:13:48.248Z,86.65
2023-03-08T21:16:17.092Z,88.31
2023-03-08T21:18:45.940Z,88.29
2023-03-08T21:21:24.660Z,90.25
2023-03-08T21:23:54.341Z,91.31
2023-03-08T21:26:24.443Z,93.42
2023-03-08T21:29:04.065Z,93.35
2023-03-08T21:31:33.643Z,92.41
2023-03-08T21:34:05.726Z,91.50
2023-03-08T21:36:34.010Z,91.19
2023-03-08T21:39:01.309Z,90.24
2023-03-08T21:41:31.294Z,91.75
2023-03-08T21:43:59.628Z,92.87
2023-03-08T21:46:27.859Z,94.71
2023-03-08T21:48:58.741Z,95.79
2023-03-08T21:51:26.554Z,95.05
2023-03-08T21:53:53.797Z,93.84
2023-03-08T21:56:21.112Z,94.76
2023-03-08T21:58:48.284Z,95.24
2023-03-08T22:01:27.065Z,95.56
2023-03-08T22:03:54.532Z,95.40
2023-03-08T22:06:22.728Z,95.29
2023-03-08T22:08:50.572Z,95.48
2023-03-08T22:11:19.090Z,95.66
2023-03-08T22:13:50.287Z,96.18
2023-03-08T22:16:17.809Z,96.75
2023-03-08T22:18:45.572Z,94.98
2023-03-08T22:21:13.214Z,95.56
2023-03-08T22:23:40.453Z,94.85
2023-03-08T22:26:09.042Z,95.12
2023-03-08T22:28:37.721Z,95.21
2023-03-08T22:31:12.912Z,94.58
2023-03-08T22:33:40.613Z,93.76
2023-03-08T22:36:10.107Z,94.56
2023-03-08T22:38:38.179Z,93.81
2023-03-08T22:41:14.200Z,94.17
2023-03-08T22:43:42.000Z,93.67
2023-03-08T22:46:13.128Z,92.95
2023-03-08T22:48:40.601Z,94.11
2023-03-08T22:51:11.528Z,94.24
2023-03-08T22:53:40.219Z,93.89
2023-03-08T22:56:10.268Z,93.15
2023-03-08T22:58:37.677Z,91.76
2023-03-08T23:01:13.114Z,91.98
2023-03-08T23:03:40.393Z,92.32
2023-03-08T23:06:07.702Z,91.78
2023-03-08T23:08:35.250Z,90.42
2023-03-08T23:11:02.648Z,91.56
2023-03-08T23:13:34.508Z,92.55
2023-03-08T23:16:02.524Z,93.23
2023-03-08T23:18:29.757Z,92.30
2023-03-08T23:20:57.010Z,92.73
2023-03-08T23:23:25.291Z,92.04
2023-03-08T23:25:52.768Z,93.05
2023-03-08T23:28:20.459Z,92.83
2023-03-08T23:30:47.651Z,93.36
2023-03-08T23:33:15.066Z,92.68
2023-03-08T23:35:42.415Z,93.03
2023-03-08T23:38:09.822Z,92.15
2023-03-08T23:40:40.545Z,91.51
2023-03-08T23:43:07.864Z,91.08
2023-03-08T23:45:35.313Z,92.30
2023-03-08T23:48:03.595Z,90.89
2023-03-08T23:50:30.933Z,90.45
2023-03-08T23:52:58.123Z,90.77
2023-03-08T23:55:25.541Z,90.50
2023-03-08T23:57:52.803Z,90.83
